sensor_id;sensor_type;location;lat;lon;timestamp;pressure;altitude;pressure_sealevel;temperature;humidity
77247;BME280;66279;42.820;23.374;2023-11-21T00:00:16;95591.31;;;10.06;61.58
77247;BME280;66279;42.820;23.374;2023-11-21T00:02:44;95593.94;;;10.20;61.05
77247;BME280;66279;42.820;23.374;2023-11-21T00:05:12;95596.59;;;10.20;60.80
77247;BME280;66279;42.820;23.374;2023-11-21T00:07:39;95600.66;;;10.22;60.59
77247;BME280;66279;42.820;23.374;2023-11-21T00:10:05;95603.13;;;10.10;61.21
77247;BME280;66279;42.820;23.374;2023-11-21T00:12:32;95592.94;;;10.07;61.07
77247;BME280;66279;42.820;23.374;2023-11-21T00:14:58;95589.47;;;10.20;60.90
77247;BME280;66279;42.820;23.374;2023-11-21T00:17:24;95590.47;;;10.12;60.88
77247;BME280;66279;42.820;23.374;2023-11-21T00:19:50;95597.03;;;10.10;61.36
77247;BME280;66279;42.820;23.374;2023-11-21T00:22:17;95592.75;;;10.02;61.58
77247;BME280;66279;42.820;23.374;2023-11-21T00:24:43;95616.94;;;10.19;60.75
77247;BME280;66279;42.820;23.374;2023-11-21T00:27:08;95611.63;;;10.12;60.92
77247;BME280;66279;42.820;23.374;2023-11-21T00:29:34;95610.44;;;10.28;60.85
77247;BME280;66279;42.820;23.374;2023-11-21T00:31:59;95600.66;;;10.09;61.14
77247;BME280;66279;42.820;23.374;2023-11-21T00:34:24;95597.63;;;9.99;60.90
77247;BME280;66279;42.820;23.374;2023-11-21T00:36:50;95596.81;;;9.98;61.21
77247;BME280;66279;42.820;23.374;2023-11-21T00:39:15;95601.88;;;10.20;61.19
77247;BME280;66279;42.820;23.374;2023-11-21T00:41:41;95596.00;;;9.91;61.83
77247;BME280;66279;42.820;23.374;2023-11-21T00:44:07;95592.53;;;10.10;61.09
77247;BME280;66279;42.820;23.374;2023-11-21T00:46:32;95591.72;;;9.97;61.43
77247;BME280;66279;42.820;23.374;2023-11-21T00:48:58;95599.66;;;10.10;60.98
77247;BME280;66279;42.820;23.374;2023-11-21T00:51:23;95600.50;;;10.04;61.23
77247;BME280;66279;42.820;23.374;2023-11-21T00:53:49;95589.09;;;10.10;60.87
77247;BME280;66279;42.820;23.374;2023-11-21T00:56:15;95584.34;;;10.19;61.11
77247;BME280;66279;42.820;23.374;2023-11-21T00:58:40;95573.59;;;10.00;61.48
77247;BME280;66279;42.820;23.374;2023-11-21T01:01:11;95570.97;;;10.13;61.25
77247;BME280;66279;42.820;23.374;2023-11-21T01:03:37;95564.66;;;10.01;61.21
77247;BME280;66279;42.820;23.374;2023-11-21T01:06:03;95573.59;;;10.00;61.51
77247;BME280;66279;42.820;23.374;2023-11-21T01:08:29;95571.56;;;10.02;61.39
77247;BME280;66279;42.820;23.374;2023-11-21T01:10:55;95576.25;;;10.13;60.78
77247;BME280;66279;42.820;23.374;2023-11-21T01:13:20;95553.09;;;9.89;61.28
77247;BME280;66279;42.820;23.374;2023-11-21T01:15:46;95582.38;;;10.07;60.96
77247;BME280;66279;42.820;23.374;2023-11-21T01:18:11;95585.03;;;10.01;61.23
77247;BME280;66279;42.820;23.374;2023-11-21T01:20:37;95595.00;;;9.92;61.49
77247;BME280;66279;42.820;23.374;2023-11-21T01:23:02;95593.34;;;10.11;60.86
77247;BME280;66279;42.820;23.374;2023-11-21T01:25:27;95591.72;;;10.03;60.93
77247;BME280;66279;42.820;23.374;2023-11-21T01:27:53;95590.28;;;10.14;61.13
77247;BME280;66279;42.820;23.374;2023-11-21T01:30:18;95577.06;;;10.07;60.71
77247;BME280;66279;42.820;23.374;2023-11-21T01:32:44;95587.66;;;10.07;60.75
77247;BME280;66279;42.820;23.374;2023-11-21T01:35:10;95594.78;;;10.07;60.45
77247;BME280;66279;42.820;23.374;2023-11-21T01:37:39;95588.06;;;10.04;60.99
77247;BME280;66279;42.820;23.374;2023-11-21T01:40:05;95590.09;;;9.96;61.08
77247;BME280;66279;42.820;23.374;2023-11-21T01:42:35;95587.25;;;9.97;60.99
77247;BME280;66279;42.820;23.374;2023-11-21T01:45:01;95575.06;;;9.89;60.53
77247;BME280;66279;42.820;23.374;2023-11-21T01:47:28;95576.25;;;10.00;60.74
77247;BME280;66279;42.820;23.374;2023-11-21T01:49:55;95575.47;;;9.93;60.90
77247;BME280;66279;42.820;23.374;2023-11-21T01:52:20;95573.41;;;10.02;60.84
77247;BME280;66279;42.820;23.374;2023-11-21T01:54:46;95574.44;;;9.87;60.74
77247;BME280;66279;42.820;23.374;2023-11-21T01:57:11;95569.56;;;9.91;60.81
77247;BME280;66279;42.820;23.374;2023-11-21T01:59:37;95570.56;;;9.90;60.93
77247;BME280;66279;42.820;23.374;2023-11-21T02:02:06;95565.91;;;9.79;61.53
77247;BME280;66279;42.820;23.374;2023-11-21T02:04:33;95574.44;;;10.01;60.53
77247;BME280;66279;42.820;23.374;2023-11-21T02:06:59;95563.03;;;10.00;60.38
77247;BME280;66279;42.820;23.374;2023-11-21T02:09:28;95556.09;;;10.06;60.30
77247;BME280;66279;42.820;23.374;2023-11-21T02:11:55;95553.28;;;10.01;60.26
77247;BME280;66279;42.820;23.374;2023-11-21T02:14:21;95551.25;;;9.96;60.72
77247;BME280;66279;42.820;23.374;2023-11-21T02:16:50;95556.16;;;9.86;60.43
77247;BME280;66279;42.820;23.374;2023-11-21T02:19:21;95561.44;;;9.93;60.57
77247;BME280;66279;42.820;23.374;2023-11-21T02:21:49;95558.78;;;9.86;60.46
77247;BME280;66279;42.820;23.374;2023-11-21T02:24:15;95557.97;;;9.92;60.28
77247;BME280;66279;42.820;23.374;2023-11-21T02:26:42;95559.38;;;9.88;60.42
77247;BME280;66279;42.820;23.374;2023-11-21T02:29:08;95554.53;;;9.91;60.29
77247;BME280;66279;42.820;23.374;2023-11-21T02:31:37;95561.63;;;9.91;60.29
77247;BME280;66279;42.820;23.374;2023-11-21T02:34:11;95562.25;;;9.80;60.90
77247;BME280;66279;42.820;23.374;2023-11-21T02:36:38;95569.97;;;9.88;60.77
77247;BME280;66279;42.820;23.374;2023-11-21T02:39:04;95568.34;;;9.80;60.43
77247;BME280;66279;42.820;23.374;2023-11-21T02:41:29;95564.66;;;9.88;60.59
77247;BME280;66279;42.820;23.374;2023-11-21T02:43:55;95562.44;;;9.85;60.56
77247;BME280;66279;42.820;23.374;2023-11-21T02:46:20;95562.03;;;9.88;60.29
77247;BME280;66279;42.820;23.374;2023-11-21T02:48:47;95566.50;;;9.87;60.29
77247;BME280;66279;42.820;23.374;2023-11-21T02:51:12;95568.56;;;9.85;60.68
77247;BME280;66279;42.820;23.374;2023-11-21T02:53:38;95575.66;;;9.98;60.25
77247;BME280;66279;42.820;23.374;2023-11-21T02:56:04;95571.78;;;9.94;60.41
77247;BME280;66279;42.820;23.374;2023-11-21T02:58:29;95575.06;;;9.83;60.60
77247;BME280;66279;42.820;23.374;2023-11-21T03:00:55;95561.84;;;9.89;60.28
77247;BME280;66279;42.820;23.374;2023-11-21T03:03:21;95567.31;;;9.88;60.29
77247;BME280;66279;42.820;23.374;2023-11-21T03:05:49;95574.84;;;9.91;59.83
77247;BME280;66279;42.820;23.374;2023-11-21T03:08:14;95577.69;;;9.89;59.84
77247;BME280;66279;42.820;23.374;2023-11-21T03:10:40;95575.09;;;9.76;60.04
77247;BME280;66279;42.820;23.374;2023-11-21T03:13:05;95585.03;;;9.81;60.20
77247;BME280;66279;42.820;23.374;2023-11-21T03:15:30;95584.22;;;9.87;60.10
77247;BME280;66279;42.820;23.374;2023-11-21T03:17:57;95573.66;;;9.80;60.19
77247;BME280;66279;42.820;23.374;2023-11-21T03:20:23;95574.66;;;9.79;60.11
77247;BME280;66279;42.820;23.374;2023-11-21T03:22:48;95578.31;;;9.85;60.28
77247;BME280;66279;42.820;23.374;2023-11-21T03:25:15;95566.31;;;9.76;60.08
77247;BME280;66279;42.820;23.374;2023-11-21T03:27:42;95566.91;;;9.84;60.00
77247;BME280;66279;42.820;23.374;2023-11-21T03:30:10;95562.28;;;9.73;60.02
77247;BME280;66279;42.820;23.374;2023-11-21T03:32:36;95568.78;;;9.71;60.00
77247;BME280;66279;42.820;23.374;2023-11-21T03:35:01;95563.66;;;9.76;60.42
77247;BME280;66279;42.820;23.374;2023-11-21T03:37:27;95564.91;;;9.73;60.37
77247;BME280;66279;42.820;23.374;2023-11-21T03:39:54;95571.81;;;9.67;60.48
77247;BME280;66279;42.820;23.374;2023-11-21T03:42:20;95569.59;;;9.71;60.11
77247;BME280;66279;42.820;23.374;2023-11-21T03:44:45;95559.00;;;9.78;60.27
77247;BME280;66279;42.820;23.374;2023-11-21T03:47:11;95573.44;;;9.62;60.02
77247;BME280;66279;42.820;23.374;2023-11-21T03:49:37;95564.72;;;9.61;60.21
77247;BME280;66279;42.820;23.374;2023-11-21T03:52:03;95559.41;;;9.75;59.88
77247;BME280;66279;42.820;23.374;2023-11-21T03:54:28;95564.66;;;9.88;60.33
77247;BME280;66279;42.820;23.374;2023-11-21T03:56:53;95552.50;;;9.74;60.14
77247;BME280;66279;42.820;23.374;2023-11-21T03:59:19;95548.81;;;9.81;60.02
77247;BME280;66279;42.820;23.374;2023-11-21T04:01:44;95550.03;;;9.92;59.69
77247;BME280;66279;42.820;23.374;2023-11-21T04:04:09;95542.72;;;9.81;60.14
77247;BME280;66279;42.820;23.374;2023-11-21T04:06:35;95531.56;;;9.65;59.96
77247;BME280;66279;42.820;23.374;2023-11-21T04:09:02;95547.22;;;9.74;60.33
77247;BME280;66279;42.820;23.374;2023-11-21T04:11:29;95544.97;;;9.71;59.71
77247;BME280;66279;42.820;23.374;2023-11-21T04:13:55;95548.22;;;9.79;59.50
77247;BME280;66279;42.820;23.374;2023-11-21T04:16:20;95550.03;;;9.79;59.60
77247;BME280;66279;42.820;23.374;2023-11-21T04:18:46;95558.78;;;9.73;59.78
77247;BME280;66279;42.820;23.374;2023-11-21T04:21:11;95547.81;;;9.76;60.07
77247;BME280;66279;42.820;23.374;2023-11-21T04:23:37;95537.47;;;9.67;60.32
77247;BME280;66279;42.820;23.374;2023-11-21T04:26:02;95533.78;;;9.68;60.04
77247;BME280;66279;42.820;23.374;2023-11-21T04:28:28;95530.53;;;9.80;59.93
77247;BME280;66279;42.820;23.374;2023-11-21T04:30:53;95520.97;;;9.65;60.31
77247;BME280;66279;42.820;23.374;2023-11-21T04:33:19;95530.34;;;9.68;59.86
77247;BME280;66279;42.820;23.374;2023-11-21T04:35:44;95532.16;;;9.74;60.02
77247;BME280;66279;42.820;23.374;2023-11-21T04:38:10;95537.88;;;9.64;60.26
77247;BME280;66279;42.820;23.374;2023-11-21T04:40:35;95545.38;;;9.67;60.01
77247;BME280;66279;42.820;23.374;2023-11-21T04:43:00;95540.28;;;9.66;60.16
77247;BME280;66279;42.820;23.374;2023-11-21T04:45:26;95547.00;;;9.68;59.87
77247;BME280;66279;42.820;23.374;2023-11-21T04:47:52;95539.47;;;9.72;60.22
77247;BME280;66279;42.820;23.374;2023-11-21T04:50:18;95534.41;;;9.71;59.99
77247;BME280;66279;42.820;23.374;2023-11-21T04:52:44;95554.13;;;9.55;60.01
77247;BME280;66279;42.820;23.374;2023-11-21T04:55:09;95557.59;;;9.62;60.20
77247;BME280;66279;42.820;23.374;2023-11-21T04:57:36;95559.63;;;9.53;60.49
77247;BME280;66279;42.820;23.374;2023-11-21T05:00:02;95548.63;;;9.50;60.90
77247;BME280;66279;42.820;23.374;2023-11-21T05:02:33;95553.91;;;9.56;60.89
77247;BME280;66279;42.820;23.374;2023-11-21T05:05:03;95554.34;;;9.73;59.85
77247;BME280;66279;42.820;23.374;2023-11-21T05:07:31;95565.09;;;9.65;60.09
77247;BME280;66279;42.820;23.374;2023-11-21T05:09:57;95558.78;;;9.66;59.78
77247;BME280;66279;42.820;23.374;2023-11-21T05:12:23;95543.94;;;9.72;60.17
77247;BME280;66279;42.820;23.374;2023-11-21T05:14:50;95546.81;;;9.50;60.19
77247;BME280;66279;42.820;23.374;2023-11-21T05:17:15;95556.16;;;9.66;60.03
77247;BME280;66279;42.820;23.374;2023-11-21T05:19:40;95562.88;;;9.68;59.54
77247;BME280;66279;42.820;23.374;2023-11-21T05:22:06;95547.81;;;9.62;59.85
77247;BME280;66279;42.820;23.374;2023-11-21T05:24:33;95545.59;;;9.59;59.88
77247;BME280;66279;42.820;23.374;2023-11-21T05:26:58;95552.91;;;9.57;60.26
77247;BME280;66279;42.820;23.374;2023-11-21T05:29:24;95563.88;;;9.54;60.46
77247;BME280;66279;42.820;23.374;2023-11-21T05:31:50;95560.22;;;9.55;60.07
77247;BME280;66279;42.820;23.374;2023-11-21T05:34:16;95564.28;;;9.51;60.56
77247;BME280;66279;42.820;23.374;2023-11-21T05:36:43;95537.88;;;9.31;60.46
77247;BME280;66279;42.820;23.374;2023-11-21T05:39:11;95546.81;;;9.37;60.48
77247;BME280;66279;42.820;23.374;2023-11-21T05:41:36;95561.47;;;9.39;60.65
77247;BME280;66279;42.820;23.374;2023-11-21T05:44:02;95568.75;;;9.51;60.74
77247;BME280;66279;42.820;23.374;2023-11-21T05:46:27;95564.91;;;9.40;59.53
77247;BME280;66279;42.820;23.374;2023-11-21T05:48:53;95559.19;;;9.23;59.91
77247;BME280;66279;42.820;23.374;2023-11-21T05:51:18;95568.53;;;9.19;60.16
77247;BME280;66279;42.820;23.374;2023-11-21T05:53:43;95565.72;;;9.60;59.44
77247;BME280;66279;42.820;23.374;2023-11-21T05:56:09;95573.44;;;9.68;59.32
77247;BME280;66279;42.820;23.374;2023-11-21T05:58:34;95569.97;;;9.81;58.83
77247;BME280;66279;42.820;23.374;2023-11-21T06:01:00;95564.91;;;9.60;59.96
77247;BME280;66279;42.820;23.374;2023-11-21T06:03:25;95560.41;;;9.54;60.05
77247;BME280;66279;42.820;23.374;2023-11-21T06:05:51;95575.81;;;10.36;51.95
77247;BME280;66279;42.820;23.374;2023-11-21T06:08:16;95564.69;;;9.48;53.04
77247;BME280;66279;42.820;23.374;2023-11-21T06:10:42;95541.31;;;9.18;55.20
77247;BME280;66279;42.820;23.374;2023-11-21T06:13:09;95561.63;;;9.44;56.17
77247;BME280;66279;42.820;23.374;2023-11-21T06:15:35;95563.47;;;9.71;56.28
77247;BME280;66279;42.820;23.374;2023-11-21T06:18:01;95566.72;;;9.73;56.19
77247;BME280;66279;42.820;23.374;2023-11-21T06:20:26;95573.66;;;9.67;56.41
77247;BME280;66279;42.820;23.374;2023-11-21T06:22:52;95566.13;;;9.51;57.08
77247;BME280;66279;42.820;23.374;2023-11-21T06:25:19;95568.56;;;9.59;57.55
77247;BME280;66279;42.820;23.374;2023-11-21T06:27:46;95574.88;;;9.64;57.61
77247;BME280;66279;42.820;23.374;2023-11-21T06:30:13;95567.63;;;8.72;56.60
77247;BME280;66279;42.820;23.374;2023-11-21T06:32:40;95572.59;;;9.08;56.55
77247;BME280;66279;42.820;23.374;2023-11-21T06:35:07;95577.03;;;9.08;57.47
77247;BME280;66279;42.820;23.374;2023-11-21T06:37:33;95575.03;;;9.23;57.97
77247;BME280;66279;42.820;23.374;2023-11-21T06:39:59;95568.75;;;9.44;57.99
77247;BME280;66279;42.820;23.374;2023-11-21T06:42:26;95567.16;;;9.36;58.75
77247;BME280;66279;42.820;23.374;2023-11-21T06:44:52;95565.91;;;9.39;59.19
77247;BME280;66279;42.820;23.374;2023-11-21T06:47:18;95571.63;;;9.62;58.79
77247;BME280;66279;42.820;23.374;2023-11-21T06:49:45;95574.88;;;9.71;59.09
77247;BME280;66279;42.820;23.374;2023-11-21T06:52:13;95577.94;;;9.55;59.38
77247;BME280;66279;42.820;23.374;2023-11-21T06:54:38;95583.22;;;9.68;59.31
77247;BME280;66279;42.820;23.374;2023-11-21T06:57:04;95587.66;;;9.81;58.94
77247;BME280;66279;42.820;23.374;2023-11-21T06:59:29;95582.00;;;9.71;59.59
77247;BME280;66279;42.820;23.374;2023-11-21T07:01:55;95587.88;;;9.66;59.74
77247;BME280;66279;42.820;23.374;2023-11-21T07:04:20;95590.09;;;9.76;59.65
77247;BME280;66279;42.820;23.374;2023-11-21T07:06:45;95592.75;;;9.89;59.10
77247;BME280;66279;42.820;23.374;2023-11-21T07:09:11;95588.06;;;9.84;59.26
77247;BME280;66279;42.820;23.374;2023-11-21T07:11:37;95589.91;;;9.77;59.72
77247;BME280;66279;42.820;23.374;2023-11-21T07:14:03;95590.94;;;9.89;59.22
77247;BME280;66279;42.820;23.374;2023-11-21T07:16:36;95587.88;;;9.79;59.60
77247;BME280;66279;42.820;23.374;2023-11-21T07:19:06;95588.28;;;9.83;59.84
77247;BME280;66279;42.820;23.374;2023-11-21T07:21:35;95592.78;;;9.82;59.78
77247;BME280;66279;42.820;23.374;2023-11-21T07:24:02;95591.53;;;9.78;59.82
77247;BME280;66279;42.820;23.374;2023-11-21T07:26:29;95590.13;;;9.89;59.91
77247;BME280;66279;42.820;23.374;2023-11-21T07:28:54;95574.47;;;9.74;60.13
77247;BME280;66279;42.820;23.374;2023-11-21T07:31:21;95579.13;;;9.72;60.11
77247;BME280;66279;42.820;23.374;2023-11-21T07:33:47;95589.28;;;9.82;59.96
77247;BME280;66279;42.820;23.374;2023-11-21T07:36:13;95582.38;;;9.81;60.23
77247;BME280;66279;42.820;23.374;2023-11-21T07:38:39;95585.63;;;9.69;60.81
77247;BME280;66279;42.820;23.374;2023-11-21T07:41:05;95592.97;;;9.81;60.71
77247;BME280;66279;42.820;23.374;2023-11-21T07:43:33;95590.72;;;9.78;60.27
77247;BME280;66279;42.820;23.374;2023-11-21T07:46:01;95583.59;;;9.72;60.87
77247;BME280;66279;42.820;23.374;2023-11-21T07:48:28;95581.78;;;9.65;60.90
77247;BME280;66279;42.820;23.374;2023-11-21T07:50:54;95584.22;;;9.74;60.89
77247;BME280;66279;42.820;23.374;2023-11-21T07:53:19;95571.00;;;9.67;60.88
77247;BME280;66279;42.820;23.374;2023-11-21T07:55:46;95575.66;;;9.78;60.69
77247;BME280;66279;42.820;23.374;2023-11-21T07:58:12;95567.34;;;9.68;61.17
77247;BME280;66279;42.820;23.374;2023-11-21T08:00:38;95561.66;;;9.71;60.94
77247;BME280;66279;42.820;23.374;2023-11-21T08:03:04;95560.22;;;9.68;60.93
77247;BME280;66279;42.820;23.374;2023-11-21T08:05:31;95559.19;;;9.69;61.07
77247;BME280;66279;42.820;23.374;2023-11-21T08:07:56;95560.63;;;9.65;61.18
77247;BME280;66279;42.820;23.374;2023-11-21T08:10:22;95563.91;;;9.67;60.99
77247;BME280;66279;42.820;23.374;2023-11-21T08:12:47;95560.22;;;9.75;60.87
77247;BME280;66279;42.820;23.374;2023-11-21T08:15:14;95559.19;;;9.69;61.27
77247;BME280;66279;42.820;23.374;2023-11-21T08:17:39;95561.22;;;9.54;61.77
77247;BME280;66279;42.820;23.374;2023-11-21T08:20:05;95559.19;;;9.69;61.30
77247;BME280;66279;42.820;23.374;2023-11-21T08:22:31;95553.53;;;9.53;61.28
77247;BME280;66279;42.820;23.374;2023-11-21T08:24:57;95555.56;;;9.71;61.36
77247;BME280;66279;42.820;23.374;2023-11-21T08:27:23;95558.19;;;9.44;62.37
77247;BME280;66279;42.820;23.374;2023-11-21T08:29:48;95556.16;;;9.46;62.27
77247;BME280;66279;42.820;23.374;2023-11-21T08:32:13;95555.34;;;9.59;62.11
77247;BME280;66279;42.820;23.374;2023-11-21T08:34:40;95560.03;;;9.50;62.19
77247;BME280;66279;42.820;23.374;2023-11-21T08:37:08;95564.91;;;9.60;61.81
77247;BME280;66279;42.820;23.374;2023-11-21T08:39:33;95563.91;;;9.61;61.89
77247;BME280;66279;42.820;23.374;2023-11-21T08:41:59;95550.25;;;9.44;62.47
77247;BME280;66279;42.820;23.374;2023-11-21T08:44:24;95560.22;;;9.55;62.22
77247;BME280;66279;42.820;23.374;2023-11-21T08:46:50;95553.50;;;9.33;62.82
77247;BME280;66279;42.820;23.374;2023-11-21T08:49:15;95554.94;;;9.42;62.71
77247;BME280;66279;42.820;23.374;2023-11-21T08:51:44;95547.84;;;9.42;63.12
77247;BME280;66279;42.820;23.374;2023-11-21T08:54:09;95543.75;;;9.33;63.29
77247;BME280;66279;42.820;23.374;2023-11-21T08:56:37;95537.25;;;9.36;63.27
77247;BME280;66279;42.820;23.374;2023-11-21T08:59:02;95526.09;;;9.27;63.43
77247;BME280;66279;42.820;23.374;2023-11-21T09:01:29;95535.03;;;9.39;63.20
77247;BME280;66279;42.820;23.374;2023-11-21T09:03:57;95523.44;;;9.27;63.50
77247;BME280;66279;42.820;23.374;2023-11-21T09:06:22;95497.00;;;9.34;62.77
77247;BME280;66279;42.820;23.374;2023-11-21T09:08:48;95505.97;;;9.39;62.81
77247;BME280;66279;42.820;23.374;2023-11-21T09:11:13;95491.50;;;9.42;63.00
77247;BME280;66279;42.820;23.374;2023-11-21T09:13:39;95496.19;;;9.47;62.73
77247;BME280;66279;42.820;23.374;2023-11-21T09:16:04;95489.47;;;9.44;62.90
77247;BME280;66279;42.820;23.374;2023-11-21T09:18:31;95478.28;;;9.42;63.17
77247;BME280;66279;42.820;23.374;2023-11-21T09:20:56;95466.09;;;9.41;63.77
77247;BME280;66279;42.820;23.374;2023-11-21T09:23:22;95469.38;;;9.43;63.32
77247;BME280;66279;42.820;23.374;2023-11-21T09:25:47;95457.16;;;9.35;64.01
77247;BME280;66279;42.820;23.374;2023-11-21T09:28:15;95449.66;;;9.26;64.22
77247;BME280;66279;42.820;23.374;2023-11-21T09:30:41;95440.13;;;9.25;64.29
77247;BME280;66279;42.820;23.374;2023-11-21T09:33:07;95423.25;;;9.26;63.60
77247;BME280;66279;42.820;23.374;2023-11-21T09:35:38;95423.44;;;9.31;64.38
77247;BME280;66279;42.820;23.374;2023-11-21T09:38:04;95414.50;;;9.32;64.42
77247;BME280;66279;42.820;23.374;2023-11-21T09:40:35;95399.06;;;9.15;64.97
77247;BME280;66279;42.820;23.374;2023-11-21T09:43:05;95385.47;;;9.12;65.07
77247;BME280;66279;42.820;23.374;2023-11-21T09:45:35;95396.81;;;9.26;64.56
77247;BME280;66279;42.820;23.374;2023-11-21T09:48:01;95383.19;;;9.29;64.56
77247;BME280;66279;42.820;23.374;2023-11-21T09:50:27;95378.94;;;9.28;64.78
77247;BME280;66279;42.820;23.374;2023-11-21T09:55:44;95365.50;;;9.36;64.58
77247;BME280;66279;42.820;23.374;2023-11-21T09:58:11;95366.75;;;9.33;65.08
77247;BME280;66279;42.820;23.374;2023-11-21T10:00:44;95364.88;;;9.40;64.47
77247;BME280;66279;42.820;23.374;2023-11-21T10:03:10;95361.06;;;9.23;65.70
77247;BME280;66279;42.820;23.374;2023-11-21T10:05:37;95360.44;;;9.28;65.43
77247;BME280;66279;42.820;23.374;2023-11-21T10:08:10;95370.00;;;9.22;65.45
77247;BME280;66279;42.820;23.374;2023-11-21T10:10:37;95371.63;;;9.36;64.92
77247;BME280;66279;42.820;23.374;2023-11-21T10:13:04;95365.13;;;9.19;65.57
77247;BME280;66279;42.820;23.374;2023-11-21T10:15:33;95352.56;;;9.14;65.58
77247;BME280;66279;42.820;23.374;2023-11-21T10:18:03;95355.19;;;9.14;65.95
77247;BME280;66279;42.820;23.374;2023-11-21T10:20:29;95346.69;;;9.06;66.05
77247;BME280;66279;42.820;23.374;2023-11-21T10:22:55;95349.09;;;9.14;66.30
77247;BME280;66279;42.820;23.374;2023-11-21T10:25:22;95353.91;;;9.43;65.22
77247;BME280;66279;42.820;23.374;2023-11-21T10:27:48;95348.25;;;9.20;66.12
77247;BME280;66279;42.820;23.374;2023-11-21T10:30:17;95340.38;;;9.00;66.58
77247;BME280;66279;42.820;23.374;2023-11-21T10:32:43;95353.16;;;9.16;66.48
77247;BME280;66279;42.820;23.374;2023-11-21T10:35:09;95341.34;;;9.19;66.39
77247;BME280;66279;42.820;23.374;2023-11-21T10:37:39;95340.94;;;9.29;65.59
77247;BME280;66279;42.820;23.374;2023-11-21T10:40:09;95335.66;;;9.22;66.24
77247;BME280;66279;42.820;23.374;2023-11-21T10:42:38;95327.53;;;9.17;66.38
77247;BME280;66279;42.820;23.374;2023-11-21T10:45:13;95324.31;;;9.02;67.04
77247;BME280;66279;42.820;23.374;2023-11-21T10:47:40;95323.50;;;9.08;66.82
77247;BME280;66279;42.820;23.374;2023-11-21T10:50:07;95315.97;;;9.18;66.99
77247;BME280;66279;42.820;23.374;2023-11-21T10:52:42;95313.78;;;8.95;67.41
77247;BME280;66279;42.820;23.374;2023-11-21T10:55:21;95302.56;;;9.13;66.63
77247;BME280;66279;42.820;23.374;2023-11-21T10:57:52;95315.75;;;9.19;66.37
77247;BME280;66279;42.820;23.374;2023-11-21T11:00:18;95300.97;;;8.98;67.68
77247;BME280;66279;42.820;23.374;2023-11-21T11:02:48;95277.66;;;8.75;67.76
77247;BME280;66279;42.820;23.374;2023-11-21T11:05:15;95297.75;;;8.83;68.35
77247;BME280;66279;42.820;23.374;2023-11-21T11:07:44;95291.25;;;8.86;68.36
77247;BME280;66279;42.820;23.374;2023-11-21T11:10:11;95285.38;;;8.84;68.54
77247;BME280;66279;42.820;23.374;2023-11-21T11:12:40;95280.09;;;8.77;68.64
77247;BME280;66279;42.820;23.374;2023-11-21T11:15:07;95259.59;;;8.72;68.82
77247;BME280;66279;42.820;23.374;2023-11-21T11:17:37;95273.97;;;8.83;68.92
77247;BME280;66279;42.820;23.374;2023-11-21T11:20:04;95272.19;;;8.84;68.74
77247;BME280;66279;42.820;23.374;2023-11-21T11:22:44;95270.56;;;8.76;69.20
77247;BME280;66279;42.820;23.374;2023-11-21T11:28:07;95257.56;;;8.81;68.99
77247;BME280;66279;42.820;23.374;2023-11-21T11:33:33;95259.78;;;8.84;68.67
77247;BME280;66279;42.820;23.374;2023-11-21T11:36:06;95253.09;;;8.82;68.93
77247;BME280;66279;42.820;23.374;2023-11-21T11:38:35;95254.31;;;8.79;68.91
77247;BME280;66279;42.820;23.374;2023-11-21T11:41:05;95246.19;;;8.81;68.87
77247;BME280;66279;42.820;23.374;2023-11-21T11:43:31;95253.69;;;8.77;68.81
77247;BME280;66279;42.820;23.374;2023-11-21T11:46:10;95262.00;;;8.87;68.72
77247;BME280;66279;42.820;23.374;2023-11-21T11:48:39;95261.63;;;8.84;68.80
77247;BME280;66279;42.820;23.374;2023-11-21T11:51:10;95220.88;;;8.53;69.06
77247;BME280;66279;42.820;23.374;2023-11-21T11:53:46;95273.59;;;8.80;69.25
77247;BME280;66279;42.820;23.374;2023-11-21T11:56:38;95266.25;;;8.95;68.34
77247;BME280;66279;42.820;23.374;2023-11-21T11:59:05;95269.72;;;8.89;68.78
77247;BME280;66279;42.820;23.374;2023-11-21T12:01:34;95239.69;;;8.76;68.82
77247;BME280;66279;42.820;23.374;2023-11-21T12:06:45;95261.41;;;8.79;69.17
77247;BME280;66279;42.820;23.374;2023-11-21T12:09:31;95265.88;;;8.85;68.91
77247;BME280;66279;42.820;23.374;2023-11-21T12:11:57;95258.56;;;8.87;69.03
77247;BME280;66279;42.820;23.374;2023-11-21T12:14:23;95274.97;;;8.95;68.72
77247;BME280;66279;42.820;23.374;2023-11-21T12:16:49;95271.53;;;8.88;69.10
77247;BME280;66279;42.820;23.374;2023-11-21T12:19:14;95271.53;;;8.88;69.02
77247;BME280;66279;42.820;23.374;2023-11-21T12:21:40;95260.78;;;8.90;69.11
77247;BME280;66279;42.820;23.374;2023-11-21T12:24:14;95256.72;;;8.94;69.21
77247;BME280;66279;42.820;23.374;2023-11-21T12:26:43;95259.38;;;8.81;69.44
77247;BME280;66279;42.820;23.374;2023-11-21T12:29:09;95251.44;;;8.94;69.19
77247;BME280;66279;42.820;23.374;2023-11-21T12:31:35;95259.78;;;8.84;69.19
77247;BME280;66279;42.820;23.374;2023-11-21T12:34:01;95248.78;;;8.94;68.78
77247;BME280;66279;42.820;23.374;2023-11-21T12:36:26;95238.22;;;8.94;69.11
77247;BME280;66279;42.820;23.374;2023-11-21T12:38:54;95247.16;;;8.99;69.09
77247;BME280;66279;42.820;23.374;2023-11-21T12:41:19;95238.41;;;8.92;69.38
77247;BME280;66279;42.820;23.374;2023-11-21T12:43:46;95228.84;;;9.05;68.76
77247;BME280;66279;42.820;23.374;2023-11-21T12:46:13;95218.28;;;9.05;69.07
77247;BME280;66279;42.820;23.374;2023-11-21T12:48:44;95225.19;;;9.06;68.89
77247;BME280;66279;42.820;23.374;2023-11-21T12:51:11;95216.28;;;9.00;69.19
77247;BME280;66279;42.820;23.374;2023-11-21T12:53:38;95206.72;;;9.06;69.15
77247;BME280;66279;42.820;23.374;2023-11-21T12:56:12;95201.22;;;9.01;68.95
77247;BME280;66279;42.820;23.374;2023-11-21T12:58:39;95207.31;;;9.01;69.15
77247;BME280;66279;42.820;23.374;2023-11-21T13:01:07;95211.00;;;9.00;69.52
77247;BME280;66279;42.820;23.374;2023-11-21T13:03:37;95202.44;;;9.05;69.31
77247;BME280;66279;42.820;23.374;2023-11-21T13:06:04;95194.38;;;8.93;69.33
77247;BME280;66279;42.820;23.374;2023-11-21T13:08:30;95198.94;;;9.11;68.66